AYPY

Port Moresby Jacksons International Airport

Port Moresby, Papua New Guinea
METAR AYPY 220600Z 14018KT 9999 FU/HZ FEW020 SCT035 SCT050 29/26 Q1005 RMK/ BUILD UPS IN AREA
Observed Flight Rules
Apr-22 @ 06:00 UTC (55 minutes ago) Visual Flight Rules
Wind Visibility Clouds Conditions
140° at 18 knots 10,000+ meters
  • Few at 2,000' AGL
  • Scattered at 3,500' AGL
  • Scattered at 5,000' AGL
  • Smoke
  • Haze
Temperatures Readings
Current 29°C / 84°F
Dewpoint 26°C / 79°F
Humidity 84%
Altimeter 29.68" Hg
Pressure 1005 hPa
Elevation 47
METAR AYPY 220600Z 14018KT 9999 FU/HZ FEW020 SCT035 SCT050 29/26 Q1005 RMK/ BUILD UPS IN AREA
Observed Flight Rules
Apr-22 @ 06:00 UTC
(55 minutes ago)
VFR
Wind Visibility
140° at 18 knots 10,000+ meters
Clouds
  • Few at 2,000' AGL
  • Scattered at 3,500' AGL
  • Scattered at 5,000' AGL
Conditions
  • Smoke
  • Haze
Temperature Dewpoint
29°C / 84°F 26°C / 79°F
Humidity Altimeter Pressure
84% 29.68" Hg 1005 hPa